createdAt,value
2018-02-22T00:01:18.493Z,28.40
2018-02-22T00:03:46.652Z,27.48
2018-02-22T00:06:14.797Z,32.75
2018-02-22T00:08:42.988Z,31.98
2018-02-22T00:11:11.149Z,31.83
2018-02-22T00:13:39.273Z,26.83
2018-02-22T00:16:07.433Z,28.40
2018-02-22T00:18:36.320Z,27.42
2018-02-22T00:21:04.490Z,26.62
2018-02-22T00:23:33.396Z,29.35
2018-02-22T00:26:01.562Z,30.88
2018-02-22T00:28:30.469Z,24.73
2018-02-22T00:30:58.692Z,30.25
2018-02-22T00:33:26.861Z,30.60
2018-02-22T00:35:54.963Z,26.20
2018-02-22T00:38:23.155Z,28.20
2018-02-22T00:40:51.339Z,29.27
2018-02-22T00:43:19.485Z,29.83
2018-02-22T00:45:47.620Z,26.75
2018-02-22T00:48:17.039Z,27.65
2018-02-22T00:50:45.201Z,26.08
2018-02-22T00:53:13.412Z,30.85
2018-02-22T00:55:41.537Z,30.55
2018-02-22T00:58:09.689Z,27.55
2018-02-22T01:00:37.829Z,30.92
2018-02-22T01:03:05.964Z,31.58
2018-02-22T01:05:34.877Z,28.25
2018-02-22T01:08:03.012Z,30.90
2018-02-22T01:10:31.162Z,33.75
2018-02-22T01:12:59.316Z,32.97
2018-02-22T01:15:27.436Z,31.52
2018-02-22T01:17:55.573Z,31.35
2018-02-22T01:20:23.721Z,31.55
2018-02-22T01:22:51.879Z,29.77
2018-02-22T01:25:20.278Z,26.90
2018-02-22T01:27:48.451Z,28.38
2018-02-22T01:30:17.406Z,28.65
2018-02-22T01:32:45.537Z,27.37
2018-02-22T01:35:13.678Z,30.65
2018-02-22T01:37:41.797Z,32.33
2018-02-22T01:40:09.952Z,30.12
2018-02-22T01:42:38.089Z,30.62
2018-02-22T01:45:06.234Z,29.50
2018-02-22T01:47:35.134Z,34.20
2018-02-22T01:50:03.317Z,28.02
2018-02-22T01:52:31.440Z,28.45
2018-02-22T01:54:59.572Z,27.58
2018-02-22T01:57:27.708Z,27.10
2018-02-22T01:59:55.963Z,29.92
2018-02-22T02:02:24.865Z,28.75
2018-02-22T02:04:52.998Z,27.62
2018-02-22T02:07:21.138Z,30.35
2018-02-22T02:09:49.295Z,28.87
2018-02-22T02:12:17.476Z,30.90
2018-02-22T02:14:45.597Z,32.58
2018-02-22T02:17:14.086Z,31.77
2018-02-22T02:19:57.210Z,31.60
2018-02-22T02:22:25.361Z,29.75
2018-02-22T02:24:53.478Z,32.85
2018-02-22T02:27:22.484Z,35.33
2018-02-22T02:29:50.608Z,30.23
2018-02-22T02:32:19.664Z,34.63
2018-02-22T02:34:47.789Z,30.73
2018-02-22T02:37:16.702Z,32.92
2018-02-22T02:39:45.590Z,29.85
2018-02-22T02:42:13.741Z,29.52
2018-02-22T02:44:41.887Z,29.20
2018-02-22T02:47:10.013Z,33.00
2018-02-22T02:49:38.163Z,31.55
2018-02-22T02:52:07.052Z,33.17
2018-02-22T02:54:35.956Z,33.03
2018-02-22T02:57:04.084Z,33.92
2018-02-22T02:59:32.223Z,35.30
2018-02-22T03:02:00.337Z,33.80
2018-02-22T03:04:28.477Z,29.75
2018-02-22T03:06:56.601Z,30.08
2018-02-22T03:09:25.507Z,33.80
2018-02-22T03:11:53.641Z,33.60
2018-02-22T03:14:21.783Z,31.95
2018-02-22T03:16:49.909Z,38.75
2018-02-22T03:19:18.814Z,36.20
2018-02-22T03:21:47.090Z,33.30
2018-02-22T03:24:15.214Z,35.25
2018-02-22T03:26:43.359Z,33.00
2018-02-22T03:29:11.497Z,32.30
2018-02-22T03:31:40.586Z,33.83
2018-02-22T03:34:08.722Z,34.83
2018-02-22T03:36:38.368Z,36.30
2018-02-22T03:39:06.498Z,32.13
2018-02-22T03:41:34.648Z,33.00
2018-02-22T03:44:02.765Z,33.90
2018-02-22T03:46:31.666Z,34.03
2018-02-22T03:48:59.805Z,31.33
2018-02-22T03:51:27.961Z,36.42
2018-02-22T03:53:56.108Z,35.58
2018-02-22T03:56:24.231Z,34.97
2018-02-22T03:58:53.143Z,37.15
2018-02-22T04:01:21.292Z,34.83
2018-02-22T04:03:49.444Z,36.58
2018-02-22T04:06:17.574Z,34.53
2018-02-22T04:08:45.724Z,36.25
2018-02-22T04:11:13.985Z,39.03
2018-02-22T04:13:42.132Z,39.50
2018-02-22T04:16:11.781Z,38.70
2018-02-22T04:18:39.925Z,42.28
2018-02-22T04:21:08.047Z,38.95
2018-02-22T04:23:36.222Z,39.03
2018-02-22T04:26:04.337Z,39.53
2018-02-22T04:28:32.513Z,37.83
2018-02-22T04:31:00.640Z,36.72
2018-02-22T04:33:28.984Z,36.65
2018-02-22T04:35:57.127Z,46.78
2018-02-22T04:38:25.270Z,41.37
2018-02-22T04:40:53.400Z,35.03
2018-02-22T04:43:21.537Z,36.13
2018-02-22T04:45:49.682Z,40.50
2018-02-22T04:48:17.804Z,33.75
2018-02-22T04:50:45.964Z,35.72
2018-02-22T04:53:14.864Z,44.92
2018-02-22T04:55:43.775Z,44.05
2018-02-22T04:58:11.949Z,42.20
2018-02-22T05:00:40.212Z,38.78
2018-02-22T05:03:08.376Z,42.28
2018-02-22T05:05:37.298Z,40.45
2018-02-22T05:08:05.440Z,39.67
2018-02-22T05:10:33.700Z,37.90
2018-02-22T05:13:03.418Z,44.60
2018-02-22T05:15:31.584Z,44.95
2018-02-22T05:18:00.472Z,44.58
2018-02-22T05:20:28.765Z,38.80
2018-02-22T05:22:56.904Z,39.25
2018-02-22T05:25:25.041Z,39.80
2018-02-22T05:27:53.191Z,45.03
2018-02-22T05:30:27.997Z,40.47
2018-02-22T05:32:56.157Z,41.20
2018-02-22T05:35:25.409Z,42.58
2018-02-22T05:37:53.549Z,45.67
2018-02-22T05:40:21.693Z,41.47
2018-02-22T05:42:50.599Z,43.25
2018-02-22T05:45:18.744Z,40.35
2018-02-22T05:47:46.891Z,38.13
2018-02-22T05:50:15.017Z,35.63
2018-02-22T05:52:43.157Z,36.75
2018-02-22T05:55:11.294Z,39.33
2018-02-22T05:57:39.446Z,42.80
2018-02-22T06:00:07.574Z,44.53
2018-02-22T06:02:35.836Z,43.95
2018-02-22T06:05:04.155Z,38.17
2018-02-22T06:07:32.364Z,39.92
2018-02-22T06:10:00.486Z,40.45
2018-02-22T06:12:29.401Z,37.83
2018-02-22T06:14:57.580Z,42.28
2018-02-22T06:17:25.718Z,49.13
2018-02-22T06:19:54.025Z,42.62
2018-02-22T06:22:22.174Z,47.53
2018-02-22T06:24:50.313Z,39.83
2018-02-22T06:27:19.962Z,40.25
2018-02-22T06:29:48.089Z,39.08
2018-02-22T06:32:16.250Z,40.15
2018-02-22T06:34:44.385Z,40.72
2018-02-22T06:37:12.526Z,42.08
2018-02-22T06:39:40.657Z,39.17
2018-02-22T06:42:08.828Z,37.05
2018-02-22T06:44:36.963Z,36.42
2018-02-22T06:47:05.093Z,41.13
2018-02-22T06:49:33.217Z,37.22
2018-02-22T06:52:01.375Z,38.55
2018-02-22T06:54:29.507Z,39.42
2018-02-22T06:56:57.699Z,41.00
2018-02-22T06:59:26.606Z,38.63
2018-02-22T07:01:54.732Z,48.08
2018-02-22T07:04:24.387Z,47.28
2018-02-22T07:06:52.928Z,51.67
2018-02-22T07:09:21.058Z,37.38
2018-02-22T07:11:49.269Z,43.87
2018-02-22T07:14:17.505Z,40.47
2018-02-22T07:16:45.640Z,40.95
2018-02-22T07:19:13.856Z,38.78
2018-02-22T07:21:41.989Z,38.65
2018-02-22T07:24:10.132Z,37.28
2018-02-22T07:26:39.040Z,40.10
2018-02-22T07:29:07.217Z,40.83
2018-02-22T07:31:35.361Z,37.75
2018-02-22T07:34:03.534Z,43.08
2018-02-22T07:36:31.784Z,40.47
2018-02-22T07:38:59.931Z,42.88
2018-02-22T07:41:28.288Z,38.55
2018-02-22T07:43:56.424Z,38.42
2018-02-22T07:46:24.580Z,35.95
2018-02-22T07:48:52.909Z,37.03
2018-02-22T07:51:21.098Z,38.05
2018-02-22T07:53:49.262Z,36.13
2018-02-22T07:56:17.413Z,38.08
2018-02-22T07:58:45.608Z,33.88
2018-02-22T08:01:13.733Z,35.95
2018-02-22T08:03:41.933Z,34.58
2018-02-22T08:06:10.056Z,37.55
2018-02-22T08:08:38.217Z,34.35
2018-02-22T08:11:06.389Z,32.00
2018-02-22T08:13:34.542Z,35.15
2018-02-22T08:16:02.671Z,34.63
2018-02-22T08:18:31.934Z,35.20
2018-02-22T08:21:00.083Z,28.93
2018-02-22T08:23:28.256Z,29.95
2018-02-22T08:25:56.476Z,27.50
2018-02-22T08:28:24.673Z,33.15
2018-02-22T08:30:52.794Z,33.55
2018-02-22T08:33:20.979Z,30.52
2018-02-22T08:35:49.175Z,28.27
2018-02-22T08:38:17.299Z,29.65
2018-02-22T08:40:45.425Z,29.55
2018-02-22T08:43:13.572Z,28.33
2018-02-22T08:45:41.703Z,29.73
2018-02-22T08:48:09.842Z,31.17
2018-02-22T08:50:37.952Z,25.85
2018-02-22T08:53:06.126Z,25.90
2018-02-22T08:55:34.313Z,24.95
2018-02-22T08:58:02.509Z,26.55
2018-02-22T09:00:30.627Z,22.25
2018-02-22T09:02:58.871Z,24.00
2018-02-22T09:05:27.745Z,22.42
2018-02-22T09:07:56.666Z,25.90
2018-02-22T09:10:24.784Z,26.77
2018-02-22T09:12:52.919Z,23.33
2018-02-22T09:15:21.185Z,27.90
2018-02-22T09:17:49.661Z,24.80
2018-02-22T09:20:17.784Z,21.62
2018-02-22T09:22:45.901Z,22.17
2018-02-22T09:25:14.056Z,24.00
2018-02-22T09:27:43.051Z,26.50
2018-02-22T09:30:11.266Z,26.58
2018-02-22T09:32:39.380Z,20.88
2018-02-22T09:35:07.572Z,26.15
2018-02-22T09:37:35.752Z,22.73
2018-02-22T09:40:03.925Z,31.60
2018-02-22T09:42:32.043Z,21.65
2018-02-22T09:45:00.263Z,25.98
2018-02-22T09:47:28.541Z,22.77
2018-02-22T09:49:56.676Z,20.45
2018-02-22T09:52:24.794Z,35.17
2018-02-22T09:54:52.925Z,19.27
2018-02-22T09:57:21.812Z,24.83
2018-02-22T09:59:49.944Z,24.20
2018-02-22T10:02:18.107Z,19.35
2018-02-22T10:04:47.744Z,18.30
2018-02-22T10:07:16.958Z,19.02
2018-02-22T10:09:45.119Z,31.80
2018-02-22T10:12:13.249Z,22.90
2018-02-22T10:14:41.437Z,19.75
2018-02-22T10:17:09.583Z,22.05
2018-02-22T10:19:37.710Z,18.37
2018-02-22T10:22:05.841Z,19.25
2018-02-22T10:24:33.969Z,19.45
2018-02-22T10:27:02.121Z,24.67
2018-02-22T10:29:30.253Z,18.05
2018-02-22T10:31:58.385Z,22.75
2018-02-22T10:34:27.281Z,22.27
2018-02-22T10:36:55.417Z,19.80
2018-02-22T10:39:23.555Z,21.73
2018-02-22T10:41:51.678Z,20.95
2018-02-22T10:44:20.576Z,28.92
2018-02-22T10:46:49.469Z,21.52
2018-02-22T10:49:18.447Z,24.85
2018-02-22T10:51:46.507Z,19.62
2018-02-22T10:54:14.645Z,20.70
2018-02-22T10:56:42.799Z,20.42
2018-02-22T10:59:11.675Z,21.92
2018-02-22T11:01:45.376Z,19.62
2018-02-22T11:04:13.556Z,20.00
2018-02-22T11:06:41.690Z,127.25
2018-02-22T11:09:09.822Z,23.17
2018-02-22T11:11:37.968Z,32.25
2018-02-22T11:14:06.098Z,19.98
2018-02-22T11:16:34.304Z,14.87
2018-02-22T11:19:02.446Z,17.77
2018-02-22T11:21:31.348Z,27.73
2018-02-22T11:24:00.237Z,25.27
2018-02-22T11:26:28.392Z,29.15
2018-02-22T11:28:57.321Z,25.17
2018-02-22T11:31:25.469Z,25.20
2018-02-22T11:33:53.597Z,17.40
2018-02-22T11:36:21.737Z,17.80
2018-02-22T11:38:49.862Z,21.10
2018-02-22T11:41:17.998Z,23.63
2018-02-22T11:43:46.138Z,18.43
2018-02-22T11:46:14.285Z,33.17
2018-02-22T11:48:43.177Z,16.47
2018-02-22T11:51:12.229Z,28.03
2018-02-22T11:53:40.366Z,21.23
2018-02-22T11:56:08.531Z,19.60
2018-02-22T11:58:37.430Z,38.80
2018-02-22T12:01:05.561Z,17.77
2018-02-22T12:03:33.726Z,22.40
2018-02-22T12:06:02.159Z,16.73
2018-02-22T12:08:30.300Z,24.20
2018-02-22T12:10:59.189Z,14.03
2018-02-22T12:13:28.105Z,21.97
2018-02-22T12:15:56.235Z,130.50
2018-02-22T12:18:24.375Z,16.63
2018-02-22T12:20:52.506Z,18.07
2018-02-22T12:23:20.835Z,19.07
2018-02-22T12:25:49.037Z,18.70
2018-02-22T12:28:17.187Z,19.40
2018-02-22T12:30:45.819Z,20.43
2018-02-22T12:33:13.970Z,13.00
2018-02-22T12:35:42.845Z,13.53
2018-02-22T12:38:11.782Z,20.73
2018-02-22T12:40:39.937Z,23.40
2018-02-22T12:43:08.831Z,34.03
2018-02-22T12:45:37.881Z,24.00
2018-02-22T12:48:06.009Z,16.93
2018-02-22T12:50:34.326Z,13.53
2018-02-22T12:53:02.443Z,15.80
2018-02-22T12:55:30.593Z,15.03
2018-02-22T12:57:58.874Z,15.60
2018-02-22T13:00:27.015Z,18.80
2018-02-22T13:02:55.204Z,21.57
2018-02-22T13:05:24.126Z,14.93
2018-02-22T13:07:52.340Z,30.77
2018-02-22T13:10:20.422Z,16.73
2018-02-22T13:12:48.558Z,17.87
2018-02-22T13:15:17.029Z,14.70
2018-02-22T13:17:45.154Z,26.13
2018-02-22T13:20:14.059Z,15.60
2018-02-22T13:22:42.201Z,14.10
2018-02-22T13:25:11.863Z,18.13
2018-02-22T13:27:40.036Z,17.23
2018-02-22T13:30:08.189Z,16.40
2018-02-22T13:46:08.717Z,14.25
2018-02-22T13:48:48.574Z,14.07
2018-02-22T13:51:16.696Z,12.73
2018-02-22T13:53:44.832Z,17.73
2018-02-22T13:56:24.893Z,25.48
2018-02-22T13:58:53.025Z,18.27
2018-02-22T14:01:32.921Z,21.73
2018-02-22T14:04:01.044Z,18.55
2018-02-22T14:06:29.199Z,14.93
2018-02-22T14:08:58.079Z,17.02
2018-02-22T14:11:26.210Z,16.48
2018-02-22T14:13:54.412Z,18.75
2018-02-22T14:16:22.612Z,16.70
2018-02-22T14:18:50.742Z,14.13
2018-02-22T14:21:19.709Z,13.07
2018-02-22T14:23:47.847Z,21.55
2018-02-22T14:26:16.007Z,17.52
2018-02-22T14:28:44.150Z,14.73
2018-02-22T14:31:12.641Z,16.50
2018-02-22T14:33:40.777Z,14.95
2018-02-22T14:36:08.916Z,17.80
2018-02-22T14:38:37.046Z,16.55
2018-02-22T14:41:05.193Z,15.80
2018-02-22T14:43:33.349Z,14.32
2018-02-22T14:46:01.453Z,25.95
2018-02-22T14:48:30.361Z,13.85
2018-02-22T14:50:58.505Z,18.90
2018-02-22T14:53:26.594Z,23.77
2018-02-22T14:55:54.766Z,14.23
2018-02-22T14:58:23.670Z,12.43
2018-02-22T15:00:57.394Z,17.85
2018-02-22T15:03:25.504Z,16.75
2018-02-22T15:05:54.433Z,15.10
2018-02-22T15:08:23.343Z,10.27
2018-02-22T15:10:51.478Z,16.75
2018-02-22T15:13:19.638Z,11.82
2018-02-22T15:15:48.540Z,11.68
2018-02-22T15:18:17.502Z,17.98
2018-02-22T15:20:45.682Z,11.73
2018-02-22T15:23:13.782Z,16.15
2018-02-22T15:25:41.969Z,20.55
2018-02-22T15:28:10.086Z,12.98
2018-02-22T15:30:38.242Z,14.77
2018-02-22T15:33:06.371Z,10.82
2018-02-22T15:35:34.493Z,13.93
2018-02-22T15:38:02.728Z,16.75
2018-02-22T15:40:30.885Z,12.85
2018-02-22T15:42:59.008Z,17.15
2018-02-22T15:45:32.186Z,14.75
2018-02-22T15:48:00.390Z,13.07
2018-02-22T15:50:29.307Z,18.37
2018-02-22T15:52:57.453Z,11.40
2018-02-22T15:55:26.468Z,16.40
2018-02-22T15:57:54.596Z,11.00
2018-02-22T16:00:22.770Z,14.70
2018-02-22T16:02:50.906Z,12.75
2018-02-22T16:05:19.056Z,13.43
2018-02-22T16:07:47.214Z,15.65
2018-02-22T16:10:16.086Z,12.93
2018-02-22T16:12:44.997Z,14.23
2018-02-22T16:15:13.953Z,16.77
2018-02-22T16:17:42.184Z,11.90
2018-02-22T16:20:10.293Z,13.93
2018-02-22T16:22:39.934Z,12.05
2018-02-22T16:25:08.105Z,13.20
2018-02-22T16:27:36.294Z,13.05
2018-02-22T16:30:04.359Z,18.87
2018-02-22T16:32:32.507Z,14.52
2018-02-22T16:35:02.126Z,12.70
2018-02-22T16:37:30.293Z,10.85
2018-02-22T16:39:59.182Z,10.30
2018-02-22T16:42:27.321Z,8.50
2018-02-22T16:44:56.949Z,19.95
2018-02-22T16:47:25.824Z,11.45
2018-02-22T16:49:53.950Z,9.10
2018-02-22T16:52:22.070Z,13.90
2018-02-22T16:54:50.962Z,10.95
2018-02-22T16:57:19.149Z,10.07
2018-02-22T16:59:47.326Z,11.68
2018-02-22T17:02:15.436Z,11.75
2018-02-22T17:04:43.587Z,10.90
2018-02-22T17:07:11.849Z,14.82
2018-02-22T17:09:39.974Z,11.27
2018-02-22T17:12:08.109Z,17.65
2018-02-22T17:14:36.219Z,9.40
2018-02-22T17:17:04.350Z,26.20
2018-02-22T17:19:32.464Z,11.43
2018-02-22T17:22:02.183Z,12.05
2018-02-22T17:24:30.425Z,26.15
2018-02-22T17:27:04.169Z,28.95
2018-02-22T17:29:38.131Z,11.88
2018-02-22T17:32:11.904Z,23.80
2018-02-22T17:34:42.905Z,13.93
2018-02-22T17:37:13.714Z,14.77
2018-02-22T17:39:47.457Z,13.77
2018-02-22T17:42:16.476Z,15.50
2018-02-22T17:44:44.616Z,13.10
2018-02-22T17:47:12.786Z,22.55
2018-02-22T17:49:40.913Z,17.50
2018-02-22T17:52:09.080Z,17.17
2018-02-22T17:54:37.639Z,12.20
2018-02-22T17:57:05.889Z,9.75
2018-02-22T17:59:34.900Z,17.50
2018-02-22T18:02:03.046Z,11.48
2018-02-22T18:04:31.930Z,18.73
2018-02-22T18:07:00.824Z,12.85
2018-02-22T18:09:29.709Z,13.60
2018-02-22T18:11:57.842Z,13.68
2018-02-22T18:14:25.952Z,10.18
2018-02-22T18:16:54.858Z,14.77
2018-02-22T18:19:23.020Z,10.57
2018-02-22T18:21:51.136Z,12.37
2018-02-22T18:24:19.260Z,9.27
2018-02-22T18:26:47.381Z,13.98
2018-02-22T18:29:15.517Z,10.43
2018-02-22T18:31:43.653Z,12.35
2018-02-22T18:34:13.322Z,11.35
2018-02-22T18:36:41.468Z,11.50
2018-02-22T18:39:15.155Z,12.93
2018-02-22T18:41:49.785Z,14.32
2018-02-22T18:44:23.480Z,10.43
2018-02-22T18:46:52.768Z,10.23
2018-02-22T18:49:21.669Z,8.85
2018-02-22T18:51:50.697Z,9.65
2018-02-22T18:54:18.847Z,18.15
2018-02-22T18:56:46.976Z,12.25
2018-02-22T18:59:15.093Z,10.20
2018-02-22T19:01:43.359Z,11.75
2018-02-22T19:04:11.504Z,11.45
2018-02-22T19:06:40.425Z,15.18
2018-02-22T19:09:09.325Z,11.45
2018-02-22T19:11:37.570Z,10.18
2018-02-22T19:14:06.474Z,10.45
2018-02-22T19:16:34.635Z,13.13
2018-02-22T19:19:03.522Z,10.80
2018-02-22T19:21:32.462Z,9.38
2018-02-22T19:24:00.593Z,9.73
2018-02-22T19:26:28.727Z,14.77
2018-02-22T19:28:56.944Z,12.07
2018-02-22T19:31:25.218Z,10.10
2018-02-22T19:33:53.329Z,15.82
2018-02-22T19:36:21.509Z,12.70
2018-02-22T19:38:49.599Z,10.32
2018-02-22T19:41:17.730Z,12.07
2018-02-22T19:43:45.884Z,11.12
2018-02-22T19:46:14.085Z,11.23
2018-02-22T19:48:42.212Z,15.27
2018-02-22T19:51:10.359Z,10.95
2018-02-22T19:53:44.969Z,13.32
2018-02-22T19:56:18.298Z,11.05
2018-02-22T19:58:47.674Z,10.75
2018-02-22T20:01:18.035Z,13.32
2018-02-22T20:03:47.088Z,10.88
2018-02-22T20:06:16.697Z,11.40
2018-02-22T20:08:46.092Z,13.75
2018-02-22T20:11:17.550Z,14.40
2018-02-22T20:13:45.673Z,14.25
2018-02-22T20:16:16.195Z,11.02
2018-02-22T20:18:44.878Z,13.75
2018-02-22T20:21:13.318Z,12.37
2018-02-22T20:23:43.063Z,14.38
2018-02-22T20:26:13.890Z,12.82
2018-02-22T20:28:44.983Z,12.82
2018-02-22T20:31:14.541Z,16.80
2018-02-22T20:33:44.664Z,15.32
2018-02-22T20:36:13.228Z,12.60
2018-02-22T20:38:42.753Z,14.20
2018-02-22T20:41:11.437Z,11.73
2018-02-22T20:43:39.846Z,12.15
2018-02-22T20:46:08.554Z,11.00
2018-02-22T20:48:38.010Z,13.70
2018-02-22T20:51:07.511Z,14.23
2018-02-22T20:53:36.928Z,12.68
2018-02-22T20:56:06.219Z,11.35
2018-02-22T20:58:34.688Z,13.32
2018-02-22T21:01:04.366Z,12.20
2018-02-22T21:03:35.185Z,12.55
2018-02-22T21:06:04.470Z,13.25
2018-02-22T21:08:34.584Z,12.98
2018-02-22T21:11:03.010Z,14.25
2018-02-22T21:13:31.482Z,11.43
2018-02-22T21:16:00.461Z,15.32
2018-02-22T21:18:29.222Z,14.30
2018-02-22T21:20:57.942Z,13.07
2018-02-22T21:23:26.057Z,16.27
2018-02-22T21:25:55.289Z,19.23
2018-02-22T21:28:24.424Z,11.05
2018-02-22T21:30:53.384Z,13.30
2018-02-22T21:33:23.101Z,16.08
2018-02-22T21:35:51.303Z,12.23
2018-02-22T21:38:19.417Z,13.18
2018-02-22T21:40:48.388Z,18.20
2018-02-22T21:43:16.517Z,15.90
2018-02-22T21:45:44.658Z,16.10
2018-02-22T21:48:12.780Z,14.57
2018-02-22T21:50:40.953Z,16.25
2018-02-22T21:53:09.066Z,13.02
2018-02-22T21:55:37.977Z,13.77
2018-02-22T21:58:06.101Z,13.45
2018-02-22T22:00:34.232Z,15.88
2018-02-22T22:03:02.365Z,15.30
2018-02-22T22:05:30.493Z,15.38
2018-02-22T22:07:58.629Z,14.52
2018-02-22T22:10:26.761Z,14.15
2018-02-22T22:12:55.074Z,16.35
2018-02-22T22:15:23.195Z,14.70
2018-02-22T22:17:51.340Z,15.05
2018-02-22T22:20:19.711Z,15.90
2018-02-22T22:22:47.957Z,13.48
2018-02-22T22:25:16.077Z,15.63
2018-02-22T22:27:44.272Z,15.05
2018-02-22T22:30:12.414Z,15.48
2018-02-22T22:32:40.544Z,12.27
2018-02-22T22:35:08.677Z,14.52
2018-02-22T22:37:36.846Z,12.73
2018-02-22T22:40:04.969Z,14.60
2018-02-22T22:42:33.093Z,14.55
2018-02-22T22:45:01.249Z,16.55
2018-02-22T22:47:29.368Z,12.88
2018-02-22T22:49:57.509Z,14.20
2018-02-22T22:52:26.402Z,13.60
2018-02-22T22:54:54.545Z,16.92
2018-02-22T22:57:23.034Z,14.80
2018-02-22T22:59:51.815Z,15.82
2018-02-22T23:02:20.544Z,17.77
2018-02-22T23:04:49.532Z,16.02
2018-02-22T23:07:17.663Z,13.68
2018-02-22T23:09:50.306Z,13.98
2018-02-22T23:12:20.788Z,12.80
2018-02-22T23:14:48.961Z,17.25
2018-02-22T23:17:17.094Z,16.02
2018-02-22T23:19:50.100Z,16.17
2018-02-22T23:22:20.197Z,14.87
2018-02-22T23:24:49.111Z,13.80
2018-02-22T23:27:18.258Z,16.12
2018-02-22T23:29:46.765Z,17.85
2018-02-22T23:32:16.807Z,15.93
2018-02-22T23:34:45.305Z,17.00
2018-02-22T23:37:15.934Z,14.90
2018-02-22T23:39:45.751Z,19.75
2018-02-22T23:42:20.505Z,16.75
2018-02-22T23:44:50.590Z,19.92
2018-02-22T23:47:20.085Z,14.10
2018-02-22T23:49:50.069Z,14.77
2018-02-22T23:52:19.650Z,18.05
2018-02-22T23:54:48.107Z,18.15
2018-02-22T23:57:18.370Z,15.75
2018-02-22T23:59:52.562Z,16.42
